METAR Data
IDs: Format: Raw Decoded Include TAF

Data at: 1343 UTC 20 Oct 2021

METAR for:KBRO (Brownsville Intl, TX, US)
Text:KBRO 201317Z 00000KT 10SM SCT029 BKN043 25/22 A3002 RMK AO2 T02500222 $
Temperature: 25.0°C ( 77°F)
Dewpoint: 22.2°C ( 72°F) [RH = 84%]
Pressure (altimeter):30.02 inches Hg (1016.7 mb)
Winds:calm
Visibility:10 or more sm (16+ km)
Ceiling:4300 feet AGL
Clouds: scattered clouds at 2900 feet AGL, broken clouds at 4300 feet AGL
QC Flag:SOME DATA ABOVE MAY BE INACCURATE!!!"$" is an indication the sensor requires maintenance.